KSYI

Bomar Field-Shelbyville Municipal Airport

Shelbyville, Tennessee, USA
METAR KSYI 160155Z AUTO 00000KT 3/4SM BR VV005 04/04 A2999 RMK A01
Observed Flight Rules
Dec-16 @ 01:55 UTC (25 minutes ago) Instrument Flight Rules
Visibility Clouds Conditions
3/4 miles
  • Vertical visibility at 500' AGL
  • Mist
Temperatures Readings
Current 4°C / 39°F
Dewpoint 4°C / 39°F
Humidity 100%
Altimeter 29.99" Hg
Pressure 1016 hPa
Elevation 245
METAR KSYI 160155Z AUTO 00000KT 3/4SM BR VV005 04/04 A2999 RMK A01
Observed Flight Rules
Dec-16 @ 01:55 UTC
(25 minutes ago)
LIFR
Clouds
  • Vertical visibility at 500' AGL
Conditions
  • Mist
Temperature Dewpoint
4°C / 39°F 4°C / 39°F
Humidity Altimeter Pressure
100% 29.99" Hg 1016 hPa